Accueil
METAR-TAF:

METAR-TAF

Aéroports :

Plate-forme pétrolière

Snorre B, Norvège

latitude: 61-32N, longitude: 2-12E, altitude: 90 m

Observation

Le bulletin a été fait il y a 39 minutes, à 16:20 UTC
Vent 51 kt de sud-est avec des rafales jusqu'à 62 kt
Température 5°C
Humidité 75%
Pression 1013 hPa
Visibilité 10 km ou plus

METAR: ENQR 151620Z AUTO 14051G62KT 9999NDV BKN019/// 05/01 Q1013 W///S7

Heure: 17:59 (16:59 UTC)


TAF: absent

Observations et prévisions météorologiques de plus de 4000 aéroports (messages METAR et TAF).

Les stations disponibles sont représentées par des disques jaunes et rouges sur la carte.

Passer la souris dessus pour voir le nom de la station.

Cliquer dessus pour voir les observations et prévisions météorologiques.

Pour changer de carte: cliquez sur les boutons verts avec une croix noire pour zoomer, sur le bouton vert avec un tiret pour effectuer un zoom arrière, ou sur les flèches vertes pour les cartes adjacentes.


METAR-TAF: